sensor_id;sensor_type;location;lat;lon;timestamp;P1;durP1;ratioP1;P2;durP2;ratioP2
7485;SDS011;3784;54.098;9.998;2023-06-26T00:00:23;36.03;;;34.37;;
7485;SDS011;3784;54.098;9.998;2023-06-26T00:02:49;32.53;;;31.03;;
7485;SDS011;3784;54.098;9.998;2023-06-26T00:05:16;35.67;;;33.97;;
7485;SDS011;3784;54.098;9.998;2023-06-26T00:07:42;32.10;;;30.53;;
7485;SDS011;3784;54.098;9.998;2023-06-26T00:10:09;35.27;;;33.53;;
7485;SDS011;3784;54.098;9.998;2023-06-26T00:12:35;37.80;;;36.00;;
7485;SDS011;3784;54.098;9.998;2023-06-26T00:15:02;34.07;;;32.43;;
7485;SDS011;3784;54.098;9.998;2023-06-26T00:17:28;43.43;;;41.43;;
7485;SDS011;3784;54.098;9.998;2023-06-26T00:19:55;38.77;;;36.83;;
7485;SDS011;3784;54.098;9.998;2023-06-26T00:22:21;36.40;;;34.70;;
7485;SDS011;3784;54.098;9.998;2023-06-26T00:24:48;41.37;;;39.23;;
7485;SDS011;3784;54.098;9.998;2023-06-26T00:27:14;45.47;;;43.27;;
7485;SDS011;3784;54.098;9.998;2023-06-26T00:29:40;48.60;;;46.23;;
7485;SDS011;3784;54.098;9.998;2023-06-26T00:32:07;53.03;;;50.53;;
7485;SDS011;3784;54.098;9.998;2023-06-26T00:34:33;52.17;;;49.60;;
7485;SDS011;3784;54.098;9.998;2023-06-26T00:37:00;50.10;;;47.87;;
7485;SDS011;3784;54.098;9.998;2023-06-26T00:39:26;55.47;;;52.87;;
7485;SDS011;3784;54.098;9.998;2023-06-26T00:41:53;56.80;;;54.20;;
7485;SDS011;3784;54.098;9.998;2023-06-26T00:44:22;52.30;;;49.87;;
7485;SDS011;3784;54.098;9.998;2023-06-26T00:46:49;66.33;;;63.37;;
7485;SDS011;3784;54.098;9.998;2023-06-26T00:49:15;69.90;;;66.30;;
7485;SDS011;3784;54.098;9.998;2023-06-26T00:51:41;67.90;;;64.90;;
7485;SDS011;3784;54.098;9.998;2023-06-26T00:54:08;74.70;;;71.23;;
7485;SDS011;3784;54.098;9.998;2023-06-26T00:56:35;80.67;;;77.13;;
7485;SDS011;3784;54.098;9.998;2023-06-26T00:59:01;83.77;;;80.17;;
7485;SDS011;3784;54.098;9.998;2023-06-26T01:01:28;88.77;;;84.87;;
7485;SDS011;3784;54.098;9.998;2023-06-26T01:03:54;91.27;;;87.30;;
7485;SDS011;3784;54.098;9.998;2023-06-26T01:06:22;95.03;;;90.80;;
7485;SDS011;3784;54.098;9.998;2023-06-26T01:08:50;93.13;;;89.17;;
7485;SDS011;3784;54.098;9.998;2023-06-26T01:11:17;103.03;;;98.43;;
7485;SDS011;3784;54.098;9.998;2023-06-26T01:13:44;106.33;;;101.83;;
7485;SDS011;3784;54.098;9.998;2023-06-26T01:16:11;114.43;;;109.63;;
7485;SDS011;3784;54.098;9.998;2023-06-26T01:18:38;111.90;;;107.20;;
7485;SDS011;3784;54.098;9.998;2023-06-26T01:21:09;112.77;;;107.93;;
7485;SDS011;3784;54.098;9.998;2023-06-26T01:23:42;116.03;;;110.93;;
7485;SDS011;3784;54.098;9.998;2023-06-26T01:26:20;117.67;;;112.67;;
7485;SDS011;3784;54.098;9.998;2023-06-26T01:28:47;109.37;;;104.73;;
7485;SDS011;3784;54.098;9.998;2023-06-26T01:31:15;121.23;;;116.07;;
7485;SDS011;3784;54.098;9.998;2023-06-26T01:33:43;112.50;;;107.67;;
7485;SDS011;3784;54.098;9.998;2023-06-26T01:36:10;133.57;;;127.87;;
7485;SDS011;3784;54.098;9.998;2023-06-26T01:38:36;124.30;;;119.00;;
7485;SDS011;3784;54.098;9.998;2023-06-26T01:41:03;128.23;;;122.87;;
7485;SDS011;3784;54.098;9.998;2023-06-26T01:46:35;131.13;;;125.43;;
7485;SDS011;3784;54.098;9.998;2023-06-26T01:49:12;141.67;;;135.70;;
7485;SDS011;3784;54.098;9.998;2023-06-26T01:52:03;145.23;;;139.00;;
7485;SDS011;3784;54.098;9.998;2023-06-26T01:54:48;132.50;;;126.80;;
7485;SDS011;3784;54.098;9.998;2023-06-26T01:57:15;145.47;;;139.33;;
7485;SDS011;3784;54.098;9.998;2023-06-26T01:59:44;171.23;;;164.07;;
7485;SDS011;3784;54.098;9.998;2023-06-26T02:02:12;157.17;;;150.43;;
7485;SDS011;3784;54.098;9.998;2023-06-26T02:04:39;163.67;;;156.67;;
7485;SDS011;3784;54.098;9.998;2023-06-26T02:07:06;169.43;;;162.33;;
7485;SDS011;3784;54.098;9.998;2023-06-26T02:09:32;193.97;;;185.63;;
7485;SDS011;3784;54.098;9.998;2023-06-26T02:11:59;187.70;;;179.93;;
7485;SDS011;3784;54.098;9.998;2023-06-26T02:14:25;188.77;;;180.93;;
7485;SDS011;3784;54.098;9.998;2023-06-26T02:16:51;181.97;;;174.37;;
7485;SDS011;3784;54.098;9.998;2023-06-26T02:19:18;214.63;;;205.70;;
7485;SDS011;3784;54.098;9.998;2023-06-26T02:21:48;208.93;;;200.40;;
7485;SDS011;3784;54.098;9.998;2023-06-26T02:24:15;208.20;;;199.43;;
7485;SDS011;3784;54.098;9.998;2023-06-26T02:26:42;210.67;;;201.97;;
7485;SDS011;3784;54.098;9.998;2023-06-26T02:29:08;211.63;;;202.90;;
7485;SDS011;3784;54.098;9.998;2023-06-26T02:31:35;223.50;;;214.37;;
7485;SDS011;3784;54.098;9.998;2023-06-26T02:34:01;226.90;;;217.60;;
7485;SDS011;3784;54.098;9.998;2023-06-26T02:36:27;218.23;;;208.97;;
7485;SDS011;3784;54.098;9.998;2023-06-26T02:38:54;221.70;;;212.57;;
7485;SDS011;3784;54.098;9.998;2023-06-26T02:41:20;222.77;;;213.43;;
7485;SDS011;3784;54.098;9.998;2023-06-26T02:43:47;243.20;;;233.23;;
7485;SDS011;3784;54.098;9.998;2023-06-26T02:46:13;237.93;;;227.90;;
7485;SDS011;3784;54.098;9.998;2023-06-26T02:48:39;231.77;;;222.23;;
7485;SDS011;3784;54.098;9.998;2023-06-26T02:51:06;247.30;;;237.10;;
7485;SDS011;3784;54.098;9.998;2023-06-26T02:53:33;258.27;;;247.60;;
7485;SDS011;3784;54.098;9.998;2023-06-26T02:56:00;261.93;;;251.00;;
7485;SDS011;3784;54.098;9.998;2023-06-26T02:58:26;268.60;;;257.50;;
7485;SDS011;3784;54.098;9.998;2023-06-26T03:00:52;284.63;;;273.00;;
7485;SDS011;3784;54.098;9.998;2023-06-26T03:03:19;281.17;;;269.27;;
7485;SDS011;3784;54.098;9.998;2023-06-26T03:05:46;267.33;;;256.27;;
7485;SDS011;3784;54.098;9.998;2023-06-26T03:08:12;274.30;;;263.00;;
7485;SDS011;3784;54.098;9.998;2023-06-26T03:10:38;284.03;;;272.27;;
7485;SDS011;3784;54.098;9.998;2023-06-26T03:13:06;281.90;;;270.13;;
7485;SDS011;3784;54.098;9.998;2023-06-26T03:15:32;284.83;;;272.93;;
7485;SDS011;3784;54.098;9.998;2023-06-26T03:17:58;285.67;;;273.90;;
7485;SDS011;3784;54.098;9.998;2023-06-26T03:20:25;275.30;;;263.80;;
7485;SDS011;3784;54.098;9.998;2023-06-26T03:22:51;290.70;;;278.67;;
7485;SDS011;3784;54.098;9.998;2023-06-26T03:25:18;302.60;;;290.20;;
7485;SDS011;3784;54.098;9.998;2023-06-26T03:27:45;296.07;;;283.77;;
7485;SDS011;3784;54.098;9.998;2023-06-26T03:30:11;291.30;;;279.00;;
7485;SDS011;3784;54.098;9.998;2023-06-26T03:32:38;289.53;;;277.50;;
7485;SDS011;3784;54.098;9.998;2023-06-26T03:35:05;291.13;;;278.90;;
7485;SDS011;3784;54.098;9.998;2023-06-26T03:37:32;290.43;;;278.33;;
7485;SDS011;3784;54.098;9.998;2023-06-26T03:39:59;283.80;;;272.00;;
7485;SDS011;3784;54.098;9.998;2023-06-26T03:42:25;275.83;;;264.30;;
7485;SDS011;3784;54.098;9.998;2023-06-26T03:44:51;277.23;;;265.70;;
7485;SDS011;3784;54.098;9.998;2023-06-26T03:47:18;285.30;;;273.60;;
7485;SDS011;3784;54.098;9.998;2023-06-26T03:49:44;293.83;;;281.60;;
7485;SDS011;3784;54.098;9.998;2023-06-26T03:52:11;275.43;;;263.97;;
7485;SDS011;3784;54.098;9.998;2023-06-26T03:54:37;266.37;;;255.17;;
7485;SDS011;3784;54.098;9.998;2023-06-26T03:57:03;264.47;;;253.47;;
7485;SDS011;3784;54.098;9.998;2023-06-26T03:59:30;279.57;;;267.83;;
7485;SDS011;3784;54.098;9.998;2023-06-26T04:01:56;260.77;;;249.97;;
7485;SDS011;3784;54.098;9.998;2023-06-26T04:04:23;261.77;;;250.73;;
7485;SDS011;3784;54.098;9.998;2023-06-26T04:06:49;238.77;;;228.90;;
7485;SDS011;3784;54.098;9.998;2023-06-26T04:09:16;249.70;;;239.20;;
7485;SDS011;3784;54.098;9.998;2023-06-26T04:11:43;253.23;;;242.83;;
7485;SDS011;3784;54.098;9.998;2023-06-26T04:14:09;237.37;;;227.60;;
7485;SDS011;3784;54.098;9.998;2023-06-26T04:16:36;228.23;;;218.80;;
7485;SDS011;3784;54.098;9.998;2023-06-26T04:19:02;217.80;;;208.57;;
7485;SDS011;3784;54.098;9.998;2023-06-26T04:21:30;199.30;;;190.83;;
7485;SDS011;3784;54.098;9.998;2023-06-26T04:23:57;212.40;;;203.57;;
7485;SDS011;3784;54.098;9.998;2023-06-26T04:26:23;204.13;;;195.63;;
7485;SDS011;3784;54.098;9.998;2023-06-26T04:28:49;186.73;;;179.03;;
7485;SDS011;3784;54.098;9.998;2023-06-26T04:31:16;183.60;;;175.83;;
7485;SDS011;3784;54.098;9.998;2023-06-26T04:33:42;176.20;;;168.73;;
7485;SDS011;3784;54.098;9.998;2023-06-26T04:36:09;167.13;;;160.17;;
7485;SDS011;3784;54.098;9.998;2023-06-26T04:38:35;154.73;;;147.80;;
7485;SDS011;3784;54.098;9.998;2023-06-26T04:41:02;157.40;;;150.73;;
7485;SDS011;3784;54.098;9.998;2023-06-26T04:43:29;144.33;;;138.23;;
7485;SDS011;3784;54.098;9.998;2023-06-26T04:45:55;134.87;;;129.13;;
7485;SDS011;3784;54.098;9.998;2023-06-26T04:48:22;135.87;;;129.93;;
7485;SDS011;3784;54.098;9.998;2023-06-26T04:50:49;135.77;;;129.90;;
7485;SDS011;3784;54.098;9.998;2023-06-26T04:53:20;127.90;;;122.33;;
7485;SDS011;3784;54.098;9.998;2023-06-26T04:55:48;119.63;;;114.37;;
7485;SDS011;3784;54.098;9.998;2023-06-26T04:58:15;110.50;;;105.73;;
7485;SDS011;3784;54.098;9.998;2023-06-26T05:00:42;103.13;;;98.63;;
7485;SDS011;3784;54.098;9.998;2023-06-26T05:03:12;107.17;;;102.30;;
7485;SDS011;3784;54.098;9.998;2023-06-26T05:05:40;98.40;;;94.17;;
7485;SDS011;3784;54.098;9.998;2023-06-26T05:08:13;86.37;;;82.47;;
7485;SDS011;3784;54.098;9.998;2023-06-26T05:10:43;79.07;;;75.57;;
7485;SDS011;3784;54.098;9.998;2023-06-26T05:13:10;79.17;;;75.47;;
7485;SDS011;3784;54.098;9.998;2023-06-26T05:15:36;76.37;;;73.00;;
7485;SDS011;3784;54.098;9.998;2023-06-26T05:18:03;71.73;;;68.50;;
7485;SDS011;3784;54.098;9.998;2023-06-26T05:20:30;68.60;;;65.43;;
7485;SDS011;3784;54.098;9.998;2023-06-26T05:22:56;60.13;;;57.33;;
7485;SDS011;3784;54.098;9.998;2023-06-26T05:25:23;59.70;;;56.90;;
7485;SDS011;3784;54.098;9.998;2023-06-26T05:27:50;60.43;;;57.60;;
7485;SDS011;3784;54.098;9.998;2023-06-26T05:30:18;54.90;;;52.37;;
7485;SDS011;3784;54.098;9.998;2023-06-26T05:32:45;53.60;;;51.10;;
7485;SDS011;3784;54.098;9.998;2023-06-26T05:35:12;50.93;;;48.50;;
7485;SDS011;3784;54.098;9.998;2023-06-26T05:37:40;48.53;;;46.10;;
7485;SDS011;3784;54.098;9.998;2023-06-26T05:40:08;43.57;;;41.47;;
7485;SDS011;3784;54.098;9.998;2023-06-26T05:42:35;40.40;;;38.40;;
7485;SDS011;3784;54.098;9.998;2023-06-26T05:45:01;38.43;;;36.53;;
7485;SDS011;3784;54.098;9.998;2023-06-26T05:47:28;40.23;;;38.27;;
7485;SDS011;3784;54.098;9.998;2023-06-26T05:49:54;39.77;;;37.87;;
7485;SDS011;3784;54.098;9.998;2023-06-26T05:52:21;35.13;;;33.47;;
7485;SDS011;3784;54.098;9.998;2023-06-26T05:54:48;30.73;;;29.03;;
7485;SDS011;3784;54.098;9.998;2023-06-26T05:57:14;30.77;;;29.17;;
7485;SDS011;3784;54.098;9.998;2023-06-26T05:59:41;27.67;;;26.17;;
7485;SDS011;3784;54.098;9.998;2023-06-26T06:02:09;26.93;;;25.57;;
7485;SDS011;3784;54.098;9.998;2023-06-26T06:04:35;24.60;;;23.10;;
7485;SDS011;3784;54.098;9.998;2023-06-26T06:07:03;23.40;;;22.13;;
7485;SDS011;3784;54.098;9.998;2023-06-26T06:09:30;22.90;;;21.50;;
7485;SDS011;3784;54.098;9.998;2023-06-26T06:11:56;20.63;;;19.40;;
7485;SDS011;3784;54.098;9.998;2023-06-26T06:14:23;20.13;;;19.03;;
7485;SDS011;3784;54.098;9.998;2023-06-26T06:16:49;19.00;;;17.90;;
7485;SDS011;3784;54.098;9.998;2023-06-26T06:19:16;17.40;;;16.33;;
7485;SDS011;3784;54.098;9.998;2023-06-26T06:21:42;17.30;;;16.37;;
7485;SDS011;3784;54.098;9.998;2023-06-26T06:24:09;17.00;;;15.50;;
7485;SDS011;3784;54.098;9.998;2023-06-26T06:26:35;15.87;;;14.97;;
7485;SDS011;3784;54.098;9.998;2023-06-26T06:29:02;16.60;;;15.50;;
7485;SDS011;3784;54.098;9.998;2023-06-26T06:31:28;14.90;;;13.93;;
7485;SDS011;3784;54.098;9.998;2023-06-26T06:33:55;14.73;;;13.83;;
7485;SDS011;3784;54.098;9.998;2023-06-26T06:36:21;13.70;;;12.90;;
7485;SDS011;3784;54.098;9.998;2023-06-26T06:38:49;12.70;;;11.93;;
7485;SDS011;3784;54.098;9.998;2023-06-26T06:41:15;12.70;;;11.73;;
7485;SDS011;3784;54.098;9.998;2023-06-26T06:43:42;12.73;;;11.73;;
7485;SDS011;3784;54.098;9.998;2023-06-26T06:46:09;13.10;;;12.30;;
7485;SDS011;3784;54.098;9.998;2023-06-26T06:48:35;12.73;;;11.83;;
7485;SDS011;3784;54.098;9.998;2023-06-26T06:51:02;12.87;;;11.93;;
7485;SDS011;3784;54.098;9.998;2023-06-26T06:53:28;12.50;;;11.60;;
7485;SDS011;3784;54.098;9.998;2023-06-26T06:55:54;11.67;;;10.87;;
7485;SDS011;3784;54.098;9.998;2023-06-26T06:58:21;12.23;;;11.10;;
7485;SDS011;3784;54.098;9.998;2023-06-26T07:00:49;12.43;;;11.50;;
7485;SDS011;3784;54.098;9.998;2023-06-26T07:03:15;11.43;;;10.73;;
7485;SDS011;3784;54.098;9.998;2023-06-26T07:05:42;12.27;;;11.47;;
7485;SDS011;3784;54.098;9.998;2023-06-26T07:08:08;12.07;;;11.27;;
7485;SDS011;3784;54.098;9.998;2023-06-26T07:10:35;12.67;;;11.73;;
7485;SDS011;3784;54.098;9.998;2023-06-26T07:13:02;12.67;;;11.77;;
7485;SDS011;3784;54.098;9.998;2023-06-26T07:15:28;11.53;;;10.73;;
7485;SDS011;3784;54.098;9.998;2023-06-26T07:17:54;12.03;;;11.23;;
7485;SDS011;3784;54.098;9.998;2023-06-26T07:20:21;12.33;;;11.63;;
7485;SDS011;3784;54.098;9.998;2023-06-26T07:22:48;12.23;;;11.43;;
7485;SDS011;3784;54.098;9.998;2023-06-26T07:25:14;12.40;;;11.60;;
7485;SDS011;3784;54.098;9.998;2023-06-26T07:27:41;12.07;;;11.17;;
7485;SDS011;3784;54.098;9.998;2023-06-26T07:30:08;10.30;;;9.70;;
7485;SDS011;3784;54.098;9.998;2023-06-26T07:32:35;11.10;;;10.37;;
7485;SDS011;3784;54.098;9.998;2023-06-26T07:35:02;14.33;;;13.53;;
7485;SDS011;3784;54.098;9.998;2023-06-26T07:37:29;14.97;;;13.90;;
7485;SDS011;3784;54.098;9.998;2023-06-26T07:39:55;16.13;;;15.13;;
7485;SDS011;3784;54.098;9.998;2023-06-26T07:42:21;17.57;;;16.47;;
7485;SDS011;3784;54.098;9.998;2023-06-26T07:44:48;27.17;;;25.77;;
7485;SDS011;3784;54.098;9.998;2023-06-26T07:47:14;29.13;;;27.57;;
7485;SDS011;3784;54.098;9.998;2023-06-26T07:49:41;25.70;;;24.40;;
7485;SDS011;3784;54.098;9.998;2023-06-26T07:52:07;21.63;;;20.37;;
7485;SDS011;3784;54.098;9.998;2023-06-26T07:54:36;21.50;;;20.37;;
7485;SDS011;3784;54.098;9.998;2023-06-26T07:57:04;28.43;;;27.00;;
7485;SDS011;3784;54.098;9.998;2023-06-26T07:59:35;23.20;;;21.80;;
7485;SDS011;3784;54.098;9.998;2023-06-26T08:02:01;25.13;;;23.60;;
7485;SDS011;3784;54.098;9.998;2023-06-26T08:04:28;21.73;;;20.70;;
7485;SDS011;3784;54.098;9.998;2023-06-26T08:06:59;24.70;;;23.40;;
7485;SDS011;3784;54.098;9.998;2023-06-26T08:09:27;27.40;;;25.97;;
7485;SDS011;3784;54.098;9.998;2023-06-26T08:11:55;24.97;;;23.60;;
7485;SDS011;3784;54.098;9.998;2023-06-26T08:14:22;23.67;;;22.37;;
7485;SDS011;3784;54.098;9.998;2023-06-26T08:16:49;24.10;;;22.47;;
7485;SDS011;3784;54.098;9.998;2023-06-26T08:19:16;23.47;;;22.27;;
7485;SDS011;3784;54.098;9.998;2023-06-26T08:21:43;21.63;;;20.37;;
7485;SDS011;3784;54.098;9.998;2023-06-26T08:24:10;34.73;;;33.00;;
7485;SDS011;3784;54.098;9.998;2023-06-26T08:26:37;23.97;;;22.13;;
7485;SDS011;3784;54.098;9.998;2023-06-26T08:29:03;22.37;;;20.97;;
7485;SDS011;3784;54.098;9.998;2023-06-26T08:31:38;20.87;;;19.57;;
7485;SDS011;3784;54.098;9.998;2023-06-26T08:34:06;23.17;;;21.97;;
7485;SDS011;3784;54.098;9.998;2023-06-26T08:36:32;22.67;;;21.47;;
7485;SDS011;3784;54.098;9.998;2023-06-26T08:38:59;22.00;;;20.67;;
7485;SDS011;3784;54.098;9.998;2023-06-26T08:41:25;19.33;;;18.23;;
7485;SDS011;3784;54.098;9.998;2023-06-26T08:43:52;20.07;;;18.87;;
7485;SDS011;3784;54.098;9.998;2023-06-26T08:46:19;17.10;;;16.20;;
7485;SDS011;3784;54.098;9.998;2023-06-26T08:48:49;17.63;;;16.60;;
7485;SDS011;3784;54.098;9.998;2023-06-26T08:51:21;15.50;;;14.33;;
7485;SDS011;3784;54.098;9.998;2023-06-26T08:54:01;18.23;;;16.97;;
7485;SDS011;3784;54.098;9.998;2023-06-26T08:56:30;16.07;;;15.17;;
7485;SDS011;3784;54.098;9.998;2023-06-26T08:58:59;15.10;;;14.10;;
7485;SDS011;3784;54.098;9.998;2023-06-26T09:01:26;15.20;;;14.20;;
7485;SDS011;3784;54.098;9.998;2023-06-26T09:03:53;16.20;;;15.23;;
7485;SDS011;3784;54.098;9.998;2023-06-26T09:06:19;14.90;;;13.70;;
7485;SDS011;3784;54.098;9.998;2023-06-26T09:08:46;15.07;;;13.97;;
7485;SDS011;3784;54.098;9.998;2023-06-26T09:11:12;14.60;;;13.50;;
7485;SDS011;3784;54.098;9.998;2023-06-26T09:13:39;14.77;;;13.87;;
7485;SDS011;3784;54.098;9.998;2023-06-26T09:16:06;14.37;;;13.33;;
7485;SDS011;3784;54.098;9.998;2023-06-26T09:18:34;15.17;;;13.97;;
7485;SDS011;3784;54.098;9.998;2023-06-26T09:21:06;13.43;;;12.43;;
7485;SDS011;3784;54.098;9.998;2023-06-26T09:23:33;15.57;;;14.30;;
7485;SDS011;3784;54.098;9.998;2023-06-26T09:26:04;16.77;;;15.67;;
7485;SDS011;3784;54.098;9.998;2023-06-26T09:28:32;14.83;;;13.83;;
7485;SDS011;3784;54.098;9.998;2023-06-26T09:31:03;24.37;;;22.43;;
7485;SDS011;3784;54.098;9.998;2023-06-26T09:33:37;28.43;;;25.93;;
7485;SDS011;3784;54.098;9.998;2023-06-26T09:36:07;16.60;;;15.33;;
7485;SDS011;3784;54.098;9.998;2023-06-26T09:38:43;14.47;;;12.97;;
7485;SDS011;3784;54.098;9.998;2023-06-26T09:41:10;13.93;;;12.50;;
7485;SDS011;3784;54.098;9.998;2023-06-26T09:43:45;15.20;;;14.03;;
7485;SDS011;3784;54.098;9.998;2023-06-26T09:46:25;15.40;;;14.33;;
7485;SDS011;3784;54.098;9.998;2023-06-26T09:49:06;18.23;;;16.77;;
7485;SDS011;3784;54.098;9.998;2023-06-26T09:51:34;20.00;;;18.50;;
7485;SDS011;3784;54.098;9.998;2023-06-26T09:54:02;21.03;;;19.73;;
7485;SDS011;3784;54.098;9.998;2023-06-26T09:56:29;20.83;;;19.53;;
7485;SDS011;3784;54.098;9.998;2023-06-26T09:58:59;37.13;;;34.50;;
7485;SDS011;3784;54.098;9.998;2023-06-26T10:01:27;24.50;;;23.10;;
7485;SDS011;3784;54.098;9.998;2023-06-26T10:03:54;31.57;;;29.33;;
7485;SDS011;3784;54.098;9.998;2023-06-26T10:08:59;36.33;;;34.47;;
7485;SDS011;3784;54.098;9.998;2023-06-26T10:11:29;29.63;;;27.93;;
7485;SDS011;3784;54.098;9.998;2023-06-26T10:14:01;31.37;;;29.33;;
7485;SDS011;3784;54.098;9.998;2023-06-26T10:16:42;25.07;;;23.47;;
7485;SDS011;3784;54.098;9.998;2023-06-26T10:19:10;29.70;;;27.60;;
7485;SDS011;3784;54.098;9.998;2023-06-26T10:21:38;31.10;;;29.33;;
7485;SDS011;3784;54.098;9.998;2023-06-26T10:24:05;31.57;;;29.67;;
7485;SDS011;3784;54.098;9.998;2023-06-26T10:26:32;36.70;;;34.20;;
7485;SDS011;3784;54.098;9.998;2023-06-26T10:29:01;29.90;;;27.73;;
7485;SDS011;3784;54.098;9.998;2023-06-26T10:31:29;28.50;;;26.70;;
7485;SDS011;3784;54.098;9.998;2023-06-26T10:33:57;40.80;;;38.57;;
7485;SDS011;3784;54.098;9.998;2023-06-26T10:36:27;38.33;;;35.83;;
7485;SDS011;3784;54.098;9.998;2023-06-26T10:38:57;48.77;;;46.13;;
7485;SDS011;3784;54.098;9.998;2023-06-26T10:41:25;78.30;;;74.10;;
7485;SDS011;3784;54.098;9.998;2023-06-26T10:46:25;249.03;;;238.20;;
7485;SDS011;3784;54.098;9.998;2023-06-26T10:48:55;386.47;;;369.57;;
7485;SDS011;3784;54.098;9.998;2023-06-26T10:51:23;370.73;;;354.57;;
7485;SDS011;3784;54.098;9.998;2023-06-26T10:53:54;394.83;;;377.53;;
7485;SDS011;3784;54.098;9.998;2023-06-26T10:56:21;421.80;;;402.90;;
7485;SDS011;3784;54.098;9.998;2023-06-26T10:58:48;435.30;;;415.70;;
7485;SDS011;3784;54.098;9.998;2023-06-26T11:01:18;447.47;;;427.20;;
7485;SDS011;3784;54.098;9.998;2023-06-26T11:03:47;438.83;;;418.93;;
7485;SDS011;3784;54.098;9.998;2023-06-26T11:06:19;382.70;;;366.10;;
7485;SDS011;3784;54.098;9.998;2023-06-26T11:09:00;385.40;;;368.77;;
7485;SDS011;3784;54.098;9.998;2023-06-26T11:14:18;137.23;;;131.17;;
7485;SDS011;3784;54.098;9.998;2023-06-26T11:16:45;102.10;;;97.30;;
7485;SDS011;3784;54.098;9.998;2023-06-26T11:19:13;129.23;;;123.50;;
7485;SDS011;3784;54.098;9.998;2023-06-26T11:21:40;104.90;;;99.97;;
7485;SDS011;3784;54.098;9.998;2023-06-26T11:24:09;74.50;;;70.70;;
7485;SDS011;3784;54.098;9.998;2023-06-26T11:26:42;69.33;;;65.77;;
7485;SDS011;3784;54.098;9.998;2023-06-26T11:29:09;98.37;;;93.67;;
7485;SDS011;3784;54.098;9.998;2023-06-26T11:31:37;64.27;;;60.87;;
7485;SDS011;3784;54.098;9.998;2023-06-26T11:34:08;50.37;;;47.37;;
7485;SDS011;3784;54.098;9.998;2023-06-26T11:36:39;29.77;;;27.57;;
7485;SDS011;3784;54.098;9.998;2023-06-26T11:39:08;29.20;;;27.27;;
7485;SDS011;3784;54.098;9.998;2023-06-26T11:41:35;26.23;;;24.50;;
7485;SDS011;3784;54.098;9.998;2023-06-26T11:44:03;21.07;;;19.33;;
7485;SDS011;3784;54.098;9.998;2023-06-26T11:46:30;20.17;;;18.60;;
7485;SDS011;3784;54.098;9.998;2023-06-26T11:48:57;25.47;;;23.77;;
7485;SDS011;3784;54.098;9.998;2023-06-26T11:51:26;24.20;;;22.20;;
7485;SDS011;3784;54.098;9.998;2023-06-26T11:53:53;22.63;;;20.80;;
7485;SDS011;3784;54.098;9.998;2023-06-26T11:56:19;28.40;;;26.20;;
7485;SDS011;3784;54.098;9.998;2023-06-26T11:59:01;24.37;;;22.43;;
7485;SDS011;3784;54.098;9.998;2023-06-26T12:01:42;21.93;;;19.80;;
7485;SDS011;3784;54.098;9.998;2023-06-26T12:04:13;58.07;;;54.50;;
7485;SDS011;3784;54.098;9.998;2023-06-26T12:06:51;20.93;;;19.43;;
7485;SDS011;3784;54.098;9.998;2023-06-26T12:09:23;19.13;;;17.77;;
7485;SDS011;3784;54.098;9.998;2023-06-26T12:11:52;44.57;;;40.93;;
7485;SDS011;3784;54.098;9.998;2023-06-26T12:14:20;47.53;;;44.67;;
7485;SDS011;3784;54.098;9.998;2023-06-26T12:16:47;16.53;;;15.40;;
7485;SDS011;3784;54.098;9.998;2023-06-26T12:19:13;17.97;;;16.57;;
7485;SDS011;3784;54.098;9.998;2023-06-26T12:24:12;18.73;;;17.53;;
7485;SDS011;3784;54.098;9.998;2023-06-26T12:26:43;31.40;;;29.27;;
7485;SDS011;3784;54.098;9.998;2023-06-26T12:29:14;58.33;;;53.10;;
7485;SDS011;3784;54.098;9.998;2023-06-26T12:31:44;15.07;;;13.90;;
7485;SDS011;3784;54.098;9.998;2023-06-26T12:34:12;14.57;;;13.23;;
7485;SDS011;3784;54.098;9.998;2023-06-26T12:36:43;18.33;;;16.90;;
7485;SDS011;3784;54.098;9.998;2023-06-26T12:39:11;14.10;;;12.90;;
7485;SDS011;3784;54.098;9.998;2023-06-26T12:42:02;20.00;;;18.30;;
7485;SDS011;3784;54.098;9.998;2023-06-26T12:44:31;33.13;;;24.47;;
7485;SDS011;3784;54.098;9.998;2023-06-26T12:47:00;50.87;;;46.37;;
7485;SDS011;3784;54.098;9.998;2023-06-26T12:52:00;24.93;;;22.83;;
7485;SDS011;3784;54.098;9.998;2023-06-26T12:54:28;21.53;;;20.00;;
7485;SDS011;3784;54.098;9.998;2023-06-26T12:56:55;40.10;;;36.70;;
7485;SDS011;3784;54.098;9.998;2023-06-26T12:59:21;16.47;;;15.27;;
7485;SDS011;3784;54.098;9.998;2023-06-26T13:01:48;19.23;;;17.97;;
7485;SDS011;3784;54.098;9.998;2023-06-26T13:04:15;14.50;;;13.43;;
7485;SDS011;3784;54.098;9.998;2023-06-26T13:06:42;26.03;;;24.53;;
7485;SDS011;3784;54.098;9.998;2023-06-26T13:09:08;27.33;;;25.40;;
7485;SDS011;3784;54.098;9.998;2023-06-26T13:11:36;20.73;;;19.40;;
7485;SDS011;3784;54.098;9.998;2023-06-26T13:14:02;37.40;;;34.80;;
7485;SDS011;3784;54.098;9.998;2023-06-26T13:16:36;35.43;;;32.97;;
7485;SDS011;3784;54.098;9.998;2023-06-26T13:19:03;16.07;;;14.97;;
7485;SDS011;3784;54.098;9.998;2023-06-26T13:21:29;32.83;;;31.00;;
7485;SDS011;3784;54.098;9.998;2023-06-26T13:23:56;19.23;;;18.07;;
7485;SDS011;3784;54.098;9.998;2023-06-26T13:26:22;19.60;;;18.43;;
7485;SDS011;3784;54.098;9.998;2023-06-26T13:29:03;10.63;;;9.83;;
7485;SDS011;3784;54.098;9.998;2023-06-26T13:31:29;14.90;;;13.97;;
7485;SDS011;3784;54.098;9.998;2023-06-26T13:33:57;11.87;;;11.07;;
7485;SDS011;3784;54.098;9.998;2023-06-26T13:36:24;14.57;;;13.40;;
7485;SDS011;3784;54.098;9.998;2023-06-26T13:38:51;15.70;;;14.80;;
7485;SDS011;3784;54.098;9.998;2023-06-26T13:41:22;10.97;;;10.23;;
7485;SDS011;3784;54.098;9.998;2023-06-26T13:43:49;27.97;;;26.13;;
7485;SDS011;3784;54.098;9.998;2023-06-26T13:46:16;10.57;;;10.00;;
7485;SDS011;3784;54.098;9.998;2023-06-26T13:48:44;15.70;;;13.97;;
7485;SDS011;3784;54.098;9.998;2023-06-26T13:51:11;23.63;;;21.87;;
7485;SDS011;3784;54.098;9.998;2023-06-26T13:53:37;17.80;;;16.40;;
7485;SDS011;3784;54.098;9.998;2023-06-26T13:56:04;13.10;;;12.10;;
7485;SDS011;3784;54.098;9.998;2023-06-26T13:58:31;55.33;;;46.23;;
7485;SDS011;3784;54.098;9.998;2023-06-26T14:00:58;9.27;;;8.57;;
7485;SDS011;3784;54.098;9.998;2023-06-26T14:03:26;9.53;;;8.73;;
7485;SDS011;3784;54.098;9.998;2023-06-26T14:05:53;49.67;;;45.67;;
7485;SDS011;3784;54.098;9.998;2023-06-26T14:08:20;9.87;;;9.17;;
7485;SDS011;3784;54.098;9.998;2023-06-26T14:10:46;48.50;;;33.33;;
7485;SDS011;3784;54.098;9.998;2023-06-26T14:13:13;14.73;;;13.20;;
7485;SDS011;3784;54.098;9.998;2023-06-26T14:15:41;91.23;;;63.57;;
7485;SDS011;3784;54.098;9.998;2023-06-26T14:18:08;14.93;;;14.13;;
7485;SDS011;3784;54.098;9.998;2023-06-26T14:20:35;17.17;;;15.97;;
7485;SDS011;3784;54.098;9.998;2023-06-26T14:23:03;15.70;;;14.80;;
7485;SDS011;3784;54.098;9.998;2023-06-26T14:25:29;13.07;;;12.27;;
7485;SDS011;3784;54.098;9.998;2023-06-26T14:27:56;11.80;;;11.10;;
7485;SDS011;3784;54.098;9.998;2023-06-26T14:30:23;26.87;;;19.97;;
7485;SDS011;3784;54.098;9.998;2023-06-26T14:32:49;25.07;;;22.63;;
7485;SDS011;3784;54.098;9.998;2023-06-26T14:35:16;20.83;;;19.53;;
7485;SDS011;3784;54.098;9.998;2023-06-26T14:37:43;29.50;;;26.67;;
7485;SDS011;3784;54.098;9.998;2023-06-26T14:40:10;16.13;;;15.23;;
7485;SDS011;3784;54.098;9.998;2023-06-26T14:42:37;13.73;;;12.97;;
7485;SDS011;3784;54.098;9.998;2023-06-26T14:45:04;15.37;;;14.07;;
7485;SDS011;3784;54.098;9.998;2023-06-26T14:47:32;10.73;;;9.93;;
7485;SDS011;3784;54.098;9.998;2023-06-26T14:49:58;17.20;;;15.90;;
7485;SDS011;3784;54.098;9.998;2023-06-26T14:52:25;12.43;;;11.57;;
7485;SDS011;3784;54.098;9.998;2023-06-26T14:54:51;18.90;;;17.70;;
7485;SDS011;3784;54.098;9.998;2023-06-26T14:57:17;15.10;;;14.00;;
7485;SDS011;3784;54.098;9.998;2023-06-26T14:59:44;12.83;;;12.00;;